sensor_id;sensor_type;location;lat;lon;timestamp;P1;durP1;ratioP1;P2;durP2;ratioP2
36441;SDS011;64346;50.820;16.274;2023-02-11T00:02:14;58.00;;;31.13;;
36441;SDS011;64346;50.820;16.274;2023-02-11T00:04:42;55.78;;;29.58;;
36441;SDS011;64346;50.820;16.274;2023-02-11T00:07:09;54.72;;;29.20;;
36441;SDS011;64346;50.820;16.274;2023-02-11T00:09:36;54.38;;;30.17;;
36441;SDS011;64346;50.820;16.274;2023-02-11T00:12:06;49.72;;;27.48;;
36441;SDS011;64346;50.820;16.274;2023-02-11T00:14:36;55.28;;;28.27;;
36441;SDS011;64346;50.820;16.274;2023-02-11T00:17:03;51.50;;;27.90;;
36441;SDS011;64346;50.820;16.274;2023-02-11T00:19:30;52.20;;;27.35;;
36441;SDS011;64346;50.820;16.274;2023-02-11T00:21:57;48.75;;;26.30;;
36441;SDS011;64346;50.820;16.274;2023-02-11T00:24:25;47.88;;;24.75;;
36441;SDS011;64346;50.820;16.274;2023-02-11T00:26:52;49.92;;;26.08;;
36441;SDS011;64346;50.820;16.274;2023-02-11T00:29:19;46.50;;;23.92;;
36441;SDS011;64346;50.820;16.274;2023-02-11T00:31:46;47.65;;;24.25;;
36441;SDS011;64346;50.820;16.274;2023-02-11T00:34:14;44.05;;;22.83;;
36441;SDS011;64346;50.820;16.274;2023-02-11T00:36:41;49.55;;;23.67;;
36441;SDS011;64346;50.820;16.274;2023-02-11T00:39:08;45.28;;;22.67;;
36441;SDS011;64346;50.820;16.274;2023-02-11T00:41:36;41.50;;;19.77;;
36441;SDS011;64346;50.820;16.274;2023-02-11T00:44:03;42.13;;;21.55;;
36441;SDS011;64346;50.820;16.274;2023-02-11T00:46:31;44.78;;;23.10;;
36441;SDS011;64346;50.820;16.274;2023-02-11T00:49:01;45.35;;;23.88;;
36441;SDS011;64346;50.820;16.274;2023-02-11T00:51:30;44.47;;;22.65;;
36441;SDS011;64346;50.820;16.274;2023-02-11T00:53:57;44.67;;;23.17;;
36441;SDS011;64346;50.820;16.274;2023-02-11T00:56:25;43.97;;;22.83;;
36441;SDS011;64346;50.820;16.274;2023-02-11T00:58:52;51.63;;;25.92;;
36441;SDS011;64346;50.820;16.274;2023-02-11T01:01:19;46.05;;;24.65;;
36441;SDS011;64346;50.820;16.274;2023-02-11T01:03:47;46.22;;;23.98;;
36441;SDS011;64346;50.820;16.274;2023-02-11T01:06:14;42.40;;;23.10;;
36441;SDS011;64346;50.820;16.274;2023-02-11T01:08:42;43.92;;;23.73;;
36441;SDS011;64346;50.820;16.274;2023-02-11T01:11:14;47.55;;;25.33;;
36441;SDS011;64346;50.820;16.274;2023-02-11T01:13:44;49.35;;;25.45;;
36441;SDS011;64346;50.820;16.274;2023-02-11T01:16:14;51.63;;;26.85;;
36441;SDS011;64346;50.820;16.274;2023-02-11T01:18:42;48.65;;;25.90;;
36441;SDS011;64346;50.820;16.274;2023-02-11T01:21:10;51.78;;;27.08;;
36441;SDS011;64346;50.820;16.274;2023-02-11T01:23:38;49.72;;;26.02;;
36441;SDS011;64346;50.820;16.274;2023-02-11T01:26:05;48.90;;;24.23;;
36441;SDS011;64346;50.820;16.274;2023-02-11T01:28:32;50.00;;;25.20;;
36441;SDS011;64346;50.820;16.274;2023-02-11T01:31:02;49.00;;;25.15;;
36441;SDS011;64346;50.820;16.274;2023-02-11T01:33:30;48.65;;;25.75;;
36441;SDS011;64346;50.820;16.274;2023-02-11T01:35:59;49.40;;;24.38;;
36441;SDS011;64346;50.820;16.274;2023-02-11T01:38:28;47.17;;;24.30;;
36441;SDS011;64346;50.820;16.274;2023-02-11T01:40:57;46.78;;;24.38;;
36441;SDS011;64346;50.820;16.274;2023-02-11T01:43:30;43.42;;;24.27;;
36441;SDS011;64346;50.820;16.274;2023-02-11T01:46:05;44.78;;;24.23;;
36441;SDS011;64346;50.820;16.274;2023-02-11T01:48:46;41.58;;;22.52;;
36441;SDS011;64346;50.820;16.274;2023-02-11T01:51:17;42.10;;;23.17;;
36441;SDS011;64346;50.820;16.274;2023-02-11T01:53:53;39.35;;;21.48;;
36441;SDS011;64346;50.820;16.274;2023-02-11T01:56:21;39.47;;;21.55;;
36441;SDS011;64346;50.820;16.274;2023-02-11T01:58:50;38.50;;;19.77;;
36441;SDS011;64346;50.820;16.274;2023-02-11T02:01:23;38.88;;;20.35;;
36441;SDS011;64346;50.820;16.274;2023-02-11T02:03:53;39.70;;;19.73;;
36441;SDS011;64346;50.820;16.274;2023-02-11T02:06:32;35.20;;;19.47;;
36441;SDS011;64346;50.820;16.274;2023-02-11T02:09:16;38.42;;;21.10;;
36441;SDS011;64346;50.820;16.274;2023-02-11T02:11:49;36.30;;;18.58;;
36441;SDS011;64346;50.820;16.274;2023-02-11T02:14:17;38.40;;;18.90;;
36441;SDS011;64346;50.820;16.274;2023-02-11T02:16:44;38.72;;;19.42;;
36441;SDS011;64346;50.820;16.274;2023-02-11T02:19:20;36.35;;;18.45;;
36441;SDS011;64346;50.820;16.274;2023-02-11T02:22:34;37.83;;;18.98;;
36441;SDS011;64346;50.820;16.274;2023-02-11T02:33:23;38.33;;;19.15;;
36441;SDS011;64346;50.820;16.274;2023-02-11T02:41:15;34.75;;;17.40;;
36441;SDS011;64346;50.820;16.274;2023-02-11T02:43:47;34.92;;;17.95;;
36441;SDS011;64346;50.820;16.274;2023-02-11T02:46:21;36.45;;;17.75;;
36441;SDS011;64346;50.820;16.274;2023-02-11T02:48:49;33.53;;;17.83;;
36441;SDS011;64346;50.820;16.274;2023-02-11T02:51:24;34.95;;;18.60;;
36441;SDS011;64346;50.820;16.274;2023-02-11T03:05:52;40.80;;;19.10;;
36441;SDS011;64346;50.820;16.274;2023-02-11T03:08:43;38.58;;;19.05;;
36441;SDS011;64346;50.820;16.274;2023-02-11T03:11:17;39.92;;;19.33;;
36441;SDS011;64346;50.820;16.274;2023-02-11T03:13:46;41.53;;;20.88;;
36441;SDS011;64346;50.820;16.274;2023-02-11T03:16:17;38.00;;;20.63;;
36441;SDS011;64346;50.820;16.274;2023-02-11T03:18:54;39.20;;;21.17;;
36441;SDS011;64346;50.820;16.274;2023-02-11T03:21:24;35.33;;;18.60;;
36441;SDS011;64346;50.820;16.274;2023-02-11T03:23:54;39.00;;;20.55;;
36441;SDS011;64346;50.820;16.274;2023-02-11T03:29:00;42.67;;;22.25;;
36441;SDS011;64346;50.820;16.274;2023-02-11T03:32:00;46.73;;;23.40;;
36441;SDS011;64346;50.820;16.274;2023-02-11T03:36:58;42.10;;;22.98;;
36441;SDS011;64346;50.820;16.274;2023-02-11T03:39:37;35.95;;;21.27;;
36441;SDS011;64346;50.820;16.274;2023-02-11T03:42:08;42.80;;;22.83;;
36441;SDS011;64346;50.820;16.274;2023-02-11T03:44:39;39.00;;;21.77;;
36441;SDS011;64346;50.820;16.274;2023-02-11T03:47:13;39.35;;;19.80;;
36441;SDS011;64346;50.820;16.274;2023-02-11T03:49:42;41.17;;;21.98;;
36441;SDS011;64346;50.820;16.274;2023-02-11T03:52:13;43.72;;;22.92;;
36441;SDS011;64346;50.820;16.274;2023-02-11T03:54:43;42.05;;;21.67;;
36441;SDS011;64346;50.820;16.274;2023-02-11T03:57:14;42.63;;;22.17;;
36441;SDS011;64346;50.820;16.274;2023-02-11T03:59:51;44.10;;;22.50;;
36441;SDS011;64346;50.820;16.274;2023-02-11T04:02:23;43.15;;;22.33;;
36441;SDS011;64346;50.820;16.274;2023-02-11T04:05:05;41.33;;;22.00;;
36441;SDS011;64346;50.820;16.274;2023-02-11T04:07:33;42.45;;;21.85;;
36441;SDS011;64346;50.820;16.274;2023-02-11T04:10:00;46.88;;;22.60;;
36441;SDS011;64346;50.820;16.274;2023-02-11T04:12:27;44.85;;;23.27;;
36441;SDS011;64346;50.820;16.274;2023-02-11T04:14:55;45.90;;;23.10;;
36441;SDS011;64346;50.820;16.274;2023-02-11T04:17:22;42.80;;;23.85;;
36441;SDS011;64346;50.820;16.274;2023-02-11T04:19:49;45.20;;;24.08;;
36441;SDS011;64346;50.820;16.274;2023-02-11T04:22:19;44.80;;;24.77;;
36441;SDS011;64346;50.820;16.274;2023-02-11T04:24:46;45.38;;;23.30;;
36441;SDS011;64346;50.820;16.274;2023-02-11T04:27:13;44.95;;;25.08;;
36441;SDS011;64346;50.820;16.274;2023-02-11T04:29:43;47.40;;;23.45;;
36441;SDS011;64346;50.820;16.274;2023-02-11T04:32:10;41.45;;;21.52;;
36441;SDS011;64346;50.820;16.274;2023-02-11T04:34:38;40.22;;;21.63;;
36441;SDS011;64346;50.820;16.274;2023-02-11T04:37:05;42.60;;;21.65;;
36441;SDS011;64346;50.820;16.274;2023-02-11T04:39:35;39.00;;;19.58;;
36441;SDS011;64346;50.820;16.274;2023-02-11T04:42:07;40.53;;;20.42;;
36441;SDS011;64346;50.820;16.274;2023-02-11T04:44:34;42.38;;;22.52;;
36441;SDS011;64346;50.820;16.274;2023-02-11T04:47:01;41.28;;;19.83;;
36441;SDS011;64346;50.820;16.274;2023-02-11T04:49:29;39.78;;;20.63;;
36441;SDS011;64346;50.820;16.274;2023-02-11T04:51:58;40.85;;;20.27;;
36441;SDS011;64346;50.820;16.274;2023-02-11T04:54:28;37.63;;;20.85;;
36441;SDS011;64346;50.820;16.274;2023-02-11T04:56:55;41.65;;;20.77;;
36441;SDS011;64346;50.820;16.274;2023-02-11T04:59:22;40.65;;;20.75;;
36441;SDS011;64346;50.820;16.274;2023-02-11T05:01:49;38.50;;;20.63;;
36441;SDS011;64346;50.820;16.274;2023-02-11T05:04:17;37.22;;;19.50;;
36441;SDS011;64346;50.820;16.274;2023-02-11T05:06:44;38.10;;;21.35;;
36441;SDS011;64346;50.820;16.274;2023-02-11T05:09:12;37.55;;;18.70;;
36441;SDS011;64346;50.820;16.274;2023-02-11T05:11:39;39.70;;;20.50;;
36441;SDS011;64346;50.820;16.274;2023-02-11T05:14:11;38.47;;;20.20;;
36441;SDS011;64346;50.820;16.274;2023-02-11T05:16:38;38.22;;;20.17;;
36441;SDS011;64346;50.820;16.274;2023-02-11T05:19:08;39.53;;;19.92;;
36441;SDS011;64346;50.820;16.274;2023-02-11T05:21:35;37.20;;;19.05;;
36441;SDS011;64346;50.820;16.274;2023-02-11T05:24:03;40.17;;;18.45;;
36441;SDS011;64346;50.820;16.274;2023-02-11T05:26:33;36.63;;;18.27;;
36441;SDS011;64346;50.820;16.274;2023-02-11T05:29:01;36.00;;;17.58;;
36441;SDS011;64346;50.820;16.274;2023-02-11T05:31:30;35.17;;;17.60;;
36441;SDS011;64346;50.820;16.274;2023-02-11T05:33:58;34.15;;;17.45;;
36441;SDS011;64346;50.820;16.274;2023-02-11T05:36:25;32.33;;;17.25;;
36441;SDS011;64346;50.820;16.274;2023-02-11T05:38:52;34.72;;;17.35;;
36441;SDS011;64346;50.820;16.274;2023-02-11T05:41:19;36.35;;;18.83;;
36441;SDS011;64346;50.820;16.274;2023-02-11T05:43:49;35.53;;;18.45;;
36441;SDS011;64346;50.820;16.274;2023-02-11T05:46:16;37.10;;;18.52;;
36441;SDS011;64346;50.820;16.274;2023-02-11T05:48:44;34.97;;;17.95;;
36441;SDS011;64346;50.820;16.274;2023-02-11T05:51:11;35.55;;;18.73;;
36441;SDS011;64346;50.820;16.274;2023-02-11T05:53:41;36.72;;;18.60;;
36441;SDS011;64346;50.820;16.274;2023-02-11T05:56:08;37.58;;;19.67;;
36441;SDS011;64346;50.820;16.274;2023-02-11T05:58:35;41.70;;;19.92;;
36441;SDS011;64346;50.820;16.274;2023-02-11T06:01:02;36.92;;;20.20;;
36441;SDS011;64346;50.820;16.274;2023-02-11T06:03:33;57.70;;;28.42;;
36441;SDS011;64346;50.820;16.274;2023-02-11T06:06:02;40.75;;;21.70;;
36441;SDS011;64346;50.820;16.274;2023-02-11T06:08:30;32.88;;;18.98;;
36441;SDS011;64346;50.820;16.274;2023-02-11T06:10:59;31.90;;;17.08;;
36441;SDS011;64346;50.820;16.274;2023-02-11T06:13:29;32.60;;;17.17;;
36441;SDS011;64346;50.820;16.274;2023-02-11T06:16:00;36.00;;;17.50;;
36441;SDS011;64346;50.820;16.274;2023-02-11T06:18:30;35.70;;;18.23;;
36441;SDS011;64346;50.820;16.274;2023-02-11T06:21:00;37.05;;;18.75;;
36441;SDS011;64346;50.820;16.274;2023-02-11T06:23:27;36.47;;;17.80;;
36441;SDS011;64346;50.820;16.274;2023-02-11T06:25:59;35.13;;;17.80;;
36441;SDS011;64346;50.820;16.274;2023-02-11T06:28:28;37.88;;;18.58;;
36441;SDS011;64346;50.820;16.274;2023-02-11T06:30:55;36.28;;;19.13;;
36441;SDS011;64346;50.820;16.274;2023-02-11T06:33:30;33.60;;;18.00;;
36441;SDS011;64346;50.820;16.274;2023-02-11T06:35:59;38.15;;;19.65;;
36441;SDS011;64346;50.820;16.274;2023-02-11T06:38:30;39.75;;;20.23;;
36441;SDS011;64346;50.820;16.274;2023-02-11T06:40:59;37.80;;;18.45;;
36441;SDS011;64346;50.820;16.274;2023-02-11T06:43:31;38.45;;;19.52;;
36441;SDS011;64346;50.820;16.274;2023-02-11T06:46:01;37.15;;;17.98;;
36441;SDS011;64346;50.820;16.274;2023-02-11T06:48:29;35.05;;;17.48;;
36441;SDS011;64346;50.820;16.274;2023-02-11T06:50:59;34.97;;;17.90;;
36441;SDS011;64346;50.820;16.274;2023-02-11T06:56:01;36.40;;;18.90;;
36441;SDS011;64346;50.820;16.274;2023-02-11T06:58:30;34.58;;;16.70;;
36441;SDS011;64346;50.820;16.274;2023-02-11T07:00:57;36.15;;;18.80;;
36441;SDS011;64346;50.820;16.274;2023-02-11T07:03:26;40.22;;;19.17;;
36441;SDS011;64346;50.820;16.274;2023-02-11T07:05:55;33.22;;;18.60;;
36441;SDS011;64346;50.820;16.274;2023-02-11T07:08:22;32.72;;;17.63;;
36441;SDS011;64346;50.820;16.274;2023-02-11T07:10:52;39.08;;;18.98;;
36441;SDS011;64346;50.820;16.274;2023-02-11T07:13:19;36.85;;;18.20;;
36441;SDS011;64346;50.820;16.274;2023-02-11T07:15:51;33.35;;;18.08;;
36441;SDS011;64346;50.820;16.274;2023-02-11T07:18:21;29.75;;;16.05;;
36441;SDS011;64346;50.820;16.274;2023-02-11T07:20:55;35.65;;;17.77;;
36441;SDS011;64346;50.820;16.274;2023-02-11T07:23:23;33.15;;;17.08;;
36441;SDS011;64346;50.820;16.274;2023-02-11T07:25:50;32.00;;;17.13;;
36441;SDS011;64346;50.820;16.274;2023-02-11T07:28:18;35.13;;;17.08;;
36441;SDS011;64346;50.820;16.274;2023-02-11T07:30:50;35.95;;;17.70;;
36441;SDS011;64346;50.820;16.274;2023-02-11T07:33:22;33.90;;;18.02;;
36441;SDS011;64346;50.820;16.274;2023-02-11T07:35:49;36.95;;;18.60;;
36441;SDS011;64346;50.820;16.274;2023-02-11T07:38:19;38.92;;;18.58;;
36441;SDS011;64346;50.820;16.274;2023-02-11T07:40:48;32.20;;;17.75;;
36441;SDS011;64346;50.820;16.274;2023-02-11T07:43:16;34.60;;;17.92;;
36441;SDS011;64346;50.820;16.274;2023-02-11T07:45:45;34.40;;;17.83;;
36441;SDS011;64346;50.820;16.274;2023-02-11T07:48:17;35.03;;;18.50;;
36441;SDS011;64346;50.820;16.274;2023-02-11T07:50:46;39.33;;;19.13;;
36441;SDS011;64346;50.820;16.274;2023-02-11T07:53:14;37.63;;;19.23;;
36441;SDS011;64346;50.820;16.274;2023-02-11T07:55:44;32.00;;;17.27;;
36441;SDS011;64346;50.820;16.274;2023-02-11T07:58:11;33.40;;;17.42;;
36441;SDS011;64346;50.820;16.274;2023-02-11T08:00:39;33.80;;;15.25;;
36441;SDS011;64346;50.820;16.274;2023-02-11T08:03:08;32.42;;;16.27;;
36441;SDS011;64346;50.820;16.274;2023-02-11T08:05:37;30.58;;;16.58;;
36441;SDS011;64346;50.820;16.274;2023-02-11T08:08:05;32.70;;;17.27;;
36441;SDS011;64346;50.820;16.274;2023-02-11T08:10:37;31.70;;;14.85;;
36441;SDS011;64346;50.820;16.274;2023-02-11T08:13:04;30.65;;;16.42;;
36441;SDS011;64346;50.820;16.274;2023-02-11T08:15:33;35.70;;;16.45;;
36441;SDS011;64346;50.820;16.274;2023-02-11T08:18:01;30.48;;;16.00;;
36441;SDS011;64346;50.820;16.274;2023-02-11T08:20:30;28.15;;;14.82;;
36441;SDS011;64346;50.820;16.274;2023-02-11T08:22:58;31.63;;;16.98;;
36441;SDS011;64346;50.820;16.274;2023-02-11T08:25:27;34.33;;;18.65;;
36441;SDS011;64346;50.820;16.274;2023-02-11T08:27:54;35.25;;;18.92;;
36441;SDS011;64346;50.820;16.274;2023-02-11T08:30:24;36.28;;;17.77;;
36441;SDS011;64346;50.820;16.274;2023-02-11T08:32:54;32.78;;;18.10;;
36441;SDS011;64346;50.820;16.274;2023-02-11T08:35:23;33.08;;;18.45;;
36441;SDS011;64346;50.820;16.274;2023-02-11T08:37:51;37.72;;;19.08;;
36441;SDS011;64346;50.820;16.274;2023-02-11T08:40:20;34.42;;;18.67;;
36441;SDS011;64346;50.820;16.274;2023-02-11T08:42:47;36.53;;;20.35;;
36441;SDS011;64346;50.820;16.274;2023-02-11T08:45:14;39.15;;;20.45;;
36441;SDS011;64346;50.820;16.274;2023-02-11T08:47:42;37.60;;;19.27;;
36441;SDS011;64346;50.820;16.274;2023-02-11T08:50:09;37.55;;;21.52;;
36441;SDS011;64346;50.820;16.274;2023-02-11T08:52:39;35.28;;;20.38;;
36441;SDS011;64346;50.820;16.274;2023-02-11T08:55:06;40.15;;;21.58;;
36441;SDS011;64346;50.820;16.274;2023-02-11T08:57:33;38.05;;;19.48;;
36441;SDS011;64346;50.820;16.274;2023-02-11T09:00:00;36.58;;;19.88;;
36441;SDS011;64346;50.820;16.274;2023-02-11T09:02:28;37.17;;;20.23;;
36441;SDS011;64346;50.820;16.274;2023-02-11T09:05:02;36.47;;;20.67;;
36441;SDS011;64346;50.820;16.274;2023-02-11T09:07:30;39.60;;;21.73;;
36441;SDS011;64346;50.820;16.274;2023-02-11T09:09:57;38.50;;;20.77;;
36441;SDS011;64346;50.820;16.274;2023-02-11T09:12:24;38.03;;;20.95;;
36441;SDS011;64346;50.820;16.274;2023-02-11T09:14:51;40.00;;;21.30;;
36441;SDS011;64346;50.820;16.274;2023-02-11T09:17:19;39.00;;;21.55;;
36441;SDS011;64346;50.820;16.274;2023-02-11T09:19:50;45.33;;;22.45;;
36441;SDS011;64346;50.820;16.274;2023-02-11T09:22:18;39.03;;;22.17;;
36441;SDS011;64346;50.820;16.274;2023-02-11T09:24:48;40.95;;;22.75;;
36441;SDS011;64346;50.820;16.274;2023-02-11T09:27:15;39.22;;;21.20;;
36441;SDS011;64346;50.820;16.274;2023-02-11T09:29:42;39.45;;;21.13;;
36441;SDS011;64346;50.820;16.274;2023-02-11T09:32:09;41.88;;;22.70;;
36441;SDS011;64346;50.820;16.274;2023-02-11T09:34:37;43.35;;;25.08;;
36441;SDS011;64346;50.820;16.274;2023-02-11T09:37:04;42.03;;;22.77;;
36441;SDS011;64346;50.820;16.274;2023-02-11T09:39:33;45.17;;;24.92;;
36441;SDS011;64346;50.820;16.274;2023-02-11T09:44:50;38.47;;;22.58;;
36441;SDS011;64346;50.820;16.274;2023-02-11T09:47:27;39.67;;;22.52;;
36441;SDS011;64346;50.820;16.274;2023-02-11T09:50:06;42.30;;;23.23;;
36441;SDS011;64346;50.820;16.274;2023-02-11T09:55:18;34.33;;;19.23;;
36441;SDS011;64346;50.820;16.274;2023-02-11T09:58:03;35.80;;;18.70;;
36441;SDS011;64346;50.820;16.274;2023-02-11T10:00:41;33.10;;;17.92;;
36441;SDS011;64346;50.820;16.274;2023-02-11T10:11:10;31.23;;;17.83;;
36441;SDS011;64346;50.820;16.274;2023-02-11T10:16:50;32.45;;;18.20;;
36441;SDS011;64346;50.820;16.274;2023-02-11T10:22:27;36.40;;;19.58;;
36441;SDS011;64346;50.820;16.274;2023-02-11T10:25:19;34.35;;;20.17;;
36441;SDS011;64346;50.820;16.274;2023-02-11T10:27:53;37.42;;;20.13;;
36441;SDS011;64346;50.820;16.274;2023-02-11T10:30:30;34.90;;;18.88;;
36441;SDS011;64346;50.820;16.274;2023-02-11T10:36:02;35.78;;;20.85;;
36441;SDS011;64346;50.820;16.274;2023-02-11T10:38:32;37.72;;;20.50;;
36441;SDS011;64346;50.820;16.274;2023-02-11T10:41:04;35.80;;;20.15;;
36441;SDS011;64346;50.820;16.274;2023-02-11T10:43:37;36.38;;;19.73;;
36441;SDS011;64346;50.820;16.274;2023-02-11T10:46:17;36.92;;;20.65;;
36441;SDS011;64346;50.820;16.274;2023-02-11T10:48:48;38.72;;;21.17;;
36441;SDS011;64346;50.820;16.274;2023-02-11T10:54:08;38.28;;;21.02;;
36441;SDS011;64346;50.820;16.274;2023-02-11T10:56:40;35.28;;;20.77;;
36441;SDS011;64346;50.820;16.274;2023-02-11T10:59:31;37.15;;;21.38;;
36441;SDS011;64346;50.820;16.274;2023-02-11T11:02:04;35.60;;;20.83;;
36441;SDS011;64346;50.820;16.274;2023-02-11T11:04:44;34.10;;;19.05;;
36441;SDS011;64346;50.820;16.274;2023-02-11T11:07:24;37.20;;;19.45;;
36441;SDS011;64346;50.820;16.274;2023-02-11T11:10:05;36.35;;;19.85;;
36441;SDS011;64346;50.820;16.274;2023-02-11T11:12:51;34.33;;;20.25;;
36441;SDS011;64346;50.820;16.274;2023-02-11T11:15:20;32.60;;;18.25;;
36441;SDS011;64346;50.820;16.274;2023-02-11T11:17:48;35.45;;;19.90;;
36441;SDS011;64346;50.820;16.274;2023-02-11T11:20:27;34.42;;;18.27;;
36441;SDS011;64346;50.820;16.274;2023-02-11T11:23:09;35.58;;;19.50;;
36441;SDS011;64346;50.820;16.274;2023-02-11T11:25:42;35.47;;;19.20;;
36441;SDS011;64346;50.820;16.274;2023-02-11T11:28:28;34.22;;;18.13;;
36441;SDS011;64346;50.820;16.274;2023-02-11T11:30:58;30.83;;;16.05;;
36441;SDS011;64346;50.820;16.274;2023-02-11T11:33:29;31.02;;;16.48;;
36441;SDS011;64346;50.820;16.274;2023-02-11T11:36:04;29.40;;;14.50;;
36441;SDS011;64346;50.820;16.274;2023-02-11T11:38:36;30.80;;;15.60;;
36441;SDS011;64346;50.820;16.274;2023-02-11T11:46:34;30.65;;;16.73;;
36441;SDS011;64346;50.820;16.274;2023-02-11T11:54:59;35.13;;;17.27;;
36441;SDS011;64346;50.820;16.274;2023-02-11T11:57:35;33.25;;;17.55;;
36441;SDS011;64346;50.820;16.274;2023-02-11T12:00:05;35.20;;;18.10;;
36441;SDS011;64346;50.820;16.274;2023-02-11T12:07:58;31.83;;;16.65;;
36441;SDS011;64346;50.820;16.274;2023-02-11T12:13:42;29.08;;;17.42;;
36441;SDS011;64346;50.820;16.274;2023-02-11T12:24:39;26.55;;;15.52;;
36441;SDS011;64346;50.820;16.274;2023-02-11T12:38:59;27.63;;;15.40;;
36441;SDS011;64346;50.820;16.274;2023-02-11T12:50:17;23.58;;;13.43;;
36441;SDS011;64346;50.820;16.274;2023-02-11T12:55:38;27.33;;;15.20;;
36441;SDS011;64346;50.820;16.274;2023-02-11T12:58:11;24.50;;;12.95;;
36441;SDS011;64346;50.820;16.274;2023-02-11T13:00:47;25.38;;;13.30;;
36441;SDS011;64346;50.820;16.274;2023-02-11T13:03:22;22.33;;;11.57;;
36441;SDS011;64346;50.820;16.274;2023-02-11T13:05:56;25.20;;;13.38;;
36441;SDS011;64346;50.820;16.274;2023-02-11T13:08:34;27.08;;;13.80;;
36441;SDS011;64346;50.820;16.274;2023-02-11T13:11:16;26.75;;;14.18;;
36441;SDS011;64346;50.820;16.274;2023-02-11T13:17:11;26.63;;;13.15;;
36441;SDS011;64346;50.820;16.274;2023-02-11T13:19:49;28.40;;;15.43;;
36441;SDS011;64346;50.820;16.274;2023-02-11T13:25:18;25.75;;;13.80;;
36441;SDS011;64346;50.820;16.274;2023-02-11T13:30:45;27.75;;;14.10;;
36441;SDS011;64346;50.820;16.274;2023-02-11T13:36:24;24.65;;;13.38;;
36441;SDS011;64346;50.820;16.274;2023-02-11T13:38:31;23.70;;;13.85;;
36441;SDS011;64346;50.820;16.274;2023-02-11T13:43:32;25.40;;;14.85;;
36441;SDS011;64346;50.820;16.274;2023-02-11T13:48:37;22.65;;;13.57;;
36441;SDS011;64346;50.820;16.274;2023-02-11T13:51:12;23.25;;;12.43;;
36441;SDS011;64346;50.820;16.274;2023-02-11T13:56:22;19.05;;;10.32;;
36441;SDS011;64346;50.820;16.274;2023-02-11T13:58:58;16.37;;;8.73;;
36441;SDS011;64346;50.820;16.274;2023-02-11T14:04:22;19.08;;;8.73;;
36441;SDS011;64346;50.820;16.274;2023-02-11T14:09:53;12.80;;;6.90;;
36441;SDS011;64346;50.820;16.274;2023-02-11T14:12:22;13.80;;;7.47;;
36441;SDS011;64346;50.820;16.274;2023-02-11T14:17:33;13.63;;;7.25;;
36441;SDS011;64346;50.820;16.274;2023-02-11T14:20:02;14.77;;;8.32;;
36441;SDS011;64346;50.820;16.274;2023-02-11T14:22:49;17.30;;;8.00;;
36441;SDS011;64346;50.820;16.274;2023-02-11T14:25:22;15.55;;;7.90;;
36441;SDS011;64346;50.820;16.274;2023-02-11T14:31:02;13.23;;;6.90;;
36441;SDS011;64346;50.820;16.274;2023-02-11T14:33:48;18.48;;;8.40;;
36441;SDS011;64346;50.820;16.274;2023-02-11T14:36:43;13.55;;;7.30;;
36441;SDS011;64346;50.820;16.274;2023-02-11T14:42:01;13.60;;;6.93;;
36441;SDS011;64346;50.820;16.274;2023-02-11T14:44:30;13.65;;;6.82;;
36441;SDS011;64346;50.820;16.274;2023-02-11T14:47:03;13.13;;;6.90;;
36441;SDS011;64346;50.820;16.274;2023-02-11T14:49:35;12.60;;;6.70;;
36441;SDS011;64346;50.820;16.274;2023-02-11T14:52:12;14.75;;;6.95;;
36441;SDS011;64346;50.820;16.274;2023-02-11T14:54:50;12.15;;;6.10;;
36441;SDS011;64346;50.820;16.274;2023-02-11T14:57:19;13.48;;;6.25;;
36441;SDS011;64346;50.820;16.274;2023-02-11T15:02:23;13.63;;;7.07;;
36441;SDS011;64346;50.820;16.274;2023-02-11T15:05:11;12.27;;;5.63;;
36441;SDS011;64346;50.820;16.274;2023-02-11T15:07:48;10.05;;;5.28;;
36441;SDS011;64346;50.820;16.274;2023-02-11T15:13:21;9.43;;;5.05;;
36441;SDS011;64346;50.820;16.274;2023-02-11T15:15:50;10.55;;;4.93;;
36441;SDS011;64346;50.820;16.274;2023-02-11T15:18:25;11.45;;;4.85;;
36441;SDS011;64346;50.820;16.274;2023-02-11T15:20:57;9.77;;;4.45;;
36441;SDS011;64346;50.820;16.274;2023-02-11T15:23:28;10.40;;;5.50;;
36441;SDS011;64346;50.820;16.274;2023-02-11T15:25:57;10.52;;;5.00;;
36441;SDS011;64346;50.820;16.274;2023-02-11T15:28:35;9.57;;;4.40;;
36441;SDS011;64346;50.820;16.274;2023-02-11T15:33:39;7.47;;;4.13;;
36441;SDS011;64346;50.820;16.274;2023-02-11T15:36:09;8.82;;;4.07;;
36441;SDS011;64346;50.820;16.274;2023-02-11T15:38:45;9.32;;;3.90;;
36441;SDS011;64346;50.820;16.274;2023-02-11T15:41:34;8.75;;;4.40;;
36441;SDS011;64346;50.820;16.274;2023-02-11T15:44:02;10.05;;;5.00;;
36441;SDS011;64346;50.820;16.274;2023-02-11T15:46:31;8.30;;;4.03;;
36441;SDS011;64346;50.820;16.274;2023-02-11T15:49:04;8.88;;;4.00;;
36441;SDS011;64346;50.820;16.274;2023-02-11T15:51:32;11.02;;;6.32;;
36441;SDS011;64346;50.820;16.274;2023-02-11T15:54:17;10.93;;;4.95;;
36441;SDS011;64346;50.820;16.274;2023-02-11T15:56:48;17.10;;;8.73;;
36441;SDS011;64346;50.820;16.274;2023-02-11T16:01:53;9.93;;;4.97;;
36441;SDS011;64346;50.820;16.274;2023-02-11T16:04:22;9.15;;;4.47;;
36441;SDS011;64346;50.820;16.274;2023-02-11T16:06:53;11.38;;;5.03;;
36441;SDS011;64346;50.820;16.274;2023-02-11T16:11:56;10.07;;;5.22;;
36441;SDS011;64346;50.820;16.274;2023-02-11T16:14:44;9.93;;;5.18;;
36441;SDS011;64346;50.820;16.274;2023-02-11T16:17:12;8.90;;;4.55;;
36441;SDS011;64346;50.820;16.274;2023-02-11T16:19:50;9.02;;;4.25;;
36441;SDS011;64346;50.820;16.274;2023-02-11T16:22:29;10.32;;;5.25;;
36441;SDS011;64346;50.820;16.274;2023-02-11T16:24:59;9.73;;;4.50;;
36441;SDS011;64346;50.820;16.274;2023-02-11T16:27:28;9.43;;;4.30;;
36441;SDS011;64346;50.820;16.274;2023-02-11T16:30:24;8.68;;;4.03;;
36441;SDS011;64346;50.820;16.274;2023-02-11T16:32:55;8.27;;;4.18;;
36441;SDS011;64346;50.820;16.274;2023-02-11T16:35:23;8.43;;;4.32;;
36441;SDS011;64346;50.820;16.274;2023-02-11T17:15:51;8.30;;;4.68;;
36441;SDS011;64346;50.820;16.274;2023-02-11T18:04:33;9.00;;;4.63;;
36441;SDS011;64346;50.820;16.274;2023-02-11T18:07:00;9.25;;;4.22;;
36441;SDS011;64346;50.820;16.274;2023-02-11T18:09:28;10.50;;;4.82;;
36441;SDS011;64346;50.820;16.274;2023-02-11T18:11:55;8.65;;;4.30;;
36441;SDS011;64346;50.820;16.274;2023-02-11T18:14:22;10.38;;;5.15;;
36441;SDS011;64346;50.820;16.274;2023-02-11T18:16:52;10.02;;;4.78;;
36441;SDS011;64346;50.820;16.274;2023-02-11T18:19:22;9.38;;;4.68;;
36441;SDS011;64346;50.820;16.274;2023-02-11T18:21:49;8.98;;;4.78;;
36441;SDS011;64346;50.820;16.274;2023-02-11T18:24:17;9.60;;;5.50;;
36441;SDS011;64346;50.820;16.274;2023-02-11T18:26:46;10.98;;;5.60;;
36441;SDS011;64346;50.820;16.274;2023-02-11T18:29:16;11.05;;;6.10;;
36441;SDS011;64346;50.820;16.274;2023-02-11T18:31:43;9.80;;;5.50;;
36441;SDS011;64346;50.820;16.274;2023-02-11T18:34:10;11.48;;;6.13;;
36441;SDS011;64346;50.820;16.274;2023-02-11T18:36:37;9.90;;;6.18;;
36441;SDS011;64346;50.820;16.274;2023-02-11T18:39:05;11.27;;;6.22;;